sensor_id;sensor_type;location;lat;lon;timestamp;P1;durP1;ratioP1;P2;durP2;ratioP2
21128;SDS011;10722;51.910;8.352;2023-08-31T00:00:22;27.00;;;13.55;;
21128;SDS011;10722;51.910;8.352;2023-08-31T00:03:10;29.67;;;14.07;;
21128;SDS011;10722;51.910;8.352;2023-08-31T00:05:57;31.05;;;14.82;;
21128;SDS011;10722;51.910;8.352;2023-08-31T00:08:45;32.43;;;14.10;;
21128;SDS011;10722;51.910;8.352;2023-08-31T00:11:30;25.57;;;14.57;;
21128;SDS011;10722;51.910;8.352;2023-08-31T00:14:15;28.80;;;14.17;;
21128;SDS011;10722;51.910;8.352;2023-08-31T00:17:00;26.07;;;14.80;;
21128;SDS011;10722;51.910;8.352;2023-08-31T00:19:45;26.83;;;13.93;;
21128;SDS011;10722;51.910;8.352;2023-08-31T00:22:30;28.80;;;15.20;;
21128;SDS011;10722;51.910;8.352;2023-08-31T00:25:15;29.67;;;15.20;;
21128;SDS011;10722;51.910;8.352;2023-08-31T00:28:00;29.35;;;15.23;;
21128;SDS011;10722;51.910;8.352;2023-08-31T00:30:45;30.20;;;15.37;;
21128;SDS011;10722;51.910;8.352;2023-08-31T00:33:30;31.20;;;15.03;;
21128;SDS011;10722;51.910;8.352;2023-08-31T00:36:15;28.57;;;16.07;;
21128;SDS011;10722;51.910;8.352;2023-08-31T00:39:03;33.47;;;15.65;;
21128;SDS011;10722;51.910;8.352;2023-08-31T00:41:49;29.73;;;15.40;;
21128;SDS011;10722;51.910;8.352;2023-08-31T00:44:33;26.53;;;15.37;;
21128;SDS011;10722;51.910;8.352;2023-08-31T00:47:18;32.10;;;16.50;;
21128;SDS011;10722;51.910;8.352;2023-08-31T00:50:05;32.00;;;16.40;;
21128;SDS011;10722;51.910;8.352;2023-08-31T00:52:51;28.70;;;16.00;;
21128;SDS011;10722;51.910;8.352;2023-08-31T00:55:36;27.93;;;17.00;;
21128;SDS011;10722;51.910;8.352;2023-08-31T00:58:22;30.87;;;16.60;;
21128;SDS011;10722;51.910;8.352;2023-08-31T01:04:21;32.47;;;18.38;;
21128;SDS011;10722;51.910;8.352;2023-08-31T01:13:28;34.95;;;18.73;;
21128;SDS011;10722;51.910;8.352;2023-08-31T01:16:16;33.35;;;19.83;;
21128;SDS011;10722;51.910;8.352;2023-08-31T01:19:04;38.72;;;19.58;;
21128;SDS011;10722;51.910;8.352;2023-08-31T01:21:54;36.88;;;19.85;;
21128;SDS011;10722;51.910;8.352;2023-08-31T01:24:44;39.30;;;21.17;;
21128;SDS011;10722;51.910;8.352;2023-08-31T01:27:30;34.00;;;20.15;;
21128;SDS011;10722;51.910;8.352;2023-08-31T01:30:16;40.85;;;21.58;;
21128;SDS011;10722;51.910;8.352;2023-08-31T01:33:01;37.90;;;22.20;;
21128;SDS011;10722;51.910;8.352;2023-08-31T01:35:47;38.17;;;20.88;;
21128;SDS011;10722;51.910;8.352;2023-08-31T01:38:35;38.13;;;22.40;;
21128;SDS011;10722;51.910;8.352;2023-08-31T01:41:23;41.92;;;22.73;;
21128;SDS011;10722;51.910;8.352;2023-08-31T01:44:12;42.17;;;22.83;;
21128;SDS011;10722;51.910;8.352;2023-08-31T01:47:04;41.43;;;24.70;;
21128;SDS011;10722;51.910;8.352;2023-08-31T01:49:51;38.43;;;24.27;;
21128;SDS011;10722;51.910;8.352;2023-08-31T01:52:36;41.20;;;23.97;;
21128;SDS011;10722;51.910;8.352;2023-08-31T01:55:22;41.78;;;24.30;;
21128;SDS011;10722;51.910;8.352;2023-08-31T01:58:08;38.92;;;24.33;;
21128;SDS011;10722;51.910;8.352;2023-08-31T02:00:55;40.63;;;25.07;;
21128;SDS011;10722;51.910;8.352;2023-08-31T02:03:40;41.72;;;24.48;;
21128;SDS011;10722;51.910;8.352;2023-08-31T02:06:25;42.20;;;24.75;;
21128;SDS011;10722;51.910;8.352;2023-08-31T02:09:10;37.25;;;24.08;;
21128;SDS011;10722;51.910;8.352;2023-08-31T02:11:55;39.43;;;25.63;;
21128;SDS011;10722;51.910;8.352;2023-08-31T02:14:39;40.80;;;24.87;;
21128;SDS011;10722;51.910;8.352;2023-08-31T02:17:24;42.33;;;24.57;;
21128;SDS011;10722;51.910;8.352;2023-08-31T02:20:10;44.60;;;25.33;;
21128;SDS011;10722;51.910;8.352;2023-08-31T02:22:55;52.97;;;25.80;;
21128;SDS011;10722;51.910;8.352;2023-08-31T02:25:40;38.47;;;23.55;;
21128;SDS011;10722;51.910;8.352;2023-08-31T02:28:25;42.97;;;24.95;;
21128;SDS011;10722;51.910;8.352;2023-08-31T02:31:10;39.57;;;25.03;;
21128;SDS011;10722;51.910;8.352;2023-08-31T02:33:56;40.45;;;22.60;;
21128;SDS011;10722;51.910;8.352;2023-08-31T02:36:41;38.88;;;21.80;;
21128;SDS011;10722;51.910;8.352;2023-08-31T02:39:26;38.88;;;20.90;;
21128;SDS011;10722;51.910;8.352;2023-08-31T02:42:11;37.30;;;20.15;;
21128;SDS011;10722;51.910;8.352;2023-08-31T02:44:56;34.47;;;19.92;;
21128;SDS011;10722;51.910;8.352;2023-08-31T02:47:41;32.83;;;19.50;;
21128;SDS011;10722;51.910;8.352;2023-08-31T02:50:26;35.97;;;20.65;;
21128;SDS011;10722;51.910;8.352;2023-08-31T02:53:11;32.28;;;18.17;;
21128;SDS011;10722;51.910;8.352;2023-08-31T02:55:57;31.67;;;17.58;;
21128;SDS011;10722;51.910;8.352;2023-08-31T02:58:42;30.77;;;17.17;;
21128;SDS011;10722;51.910;8.352;2023-08-31T03:01:27;29.90;;;16.57;;
21128;SDS011;10722;51.910;8.352;2023-08-31T03:04:12;28.23;;;16.15;;
21128;SDS011;10722;51.910;8.352;2023-08-31T03:06:57;28.58;;;16.52;;
21128;SDS011;10722;51.910;8.352;2023-08-31T03:09:42;28.47;;;15.87;;
21128;SDS011;10722;51.910;8.352;2023-08-31T03:12:27;26.73;;;15.67;;
21128;SDS011;10722;51.910;8.352;2023-08-31T03:15:12;28.93;;;16.63;;
21128;SDS011;10722;51.910;8.352;2023-08-31T03:17:56;27.20;;;14.67;;
21128;SDS011;10722;51.910;8.352;2023-08-31T03:20:42;30.57;;;15.63;;
21128;SDS011;10722;51.910;8.352;2023-08-31T03:23:29;27.87;;;15.77;;
21128;SDS011;10722;51.910;8.352;2023-08-31T03:26:14;32.00;;;16.23;;
21128;SDS011;10722;51.910;8.352;2023-08-31T03:28:59;32.20;;;16.75;;
21128;SDS011;10722;51.910;8.352;2023-08-31T03:31:44;33.55;;;16.00;;
21128;SDS011;10722;51.910;8.352;2023-08-31T03:34:30;27.93;;;16.60;;
21128;SDS011;10722;51.910;8.352;2023-08-31T03:37:15;34.17;;;17.85;;
21128;SDS011;10722;51.910;8.352;2023-08-31T03:40:01;30.43;;;16.73;;
21128;SDS011;10722;51.910;8.352;2023-08-31T03:42:46;28.53;;;17.00;;
21128;SDS011;10722;51.910;8.352;2023-08-31T03:45:31;33.27;;;17.80;;
21128;SDS011;10722;51.910;8.352;2023-08-31T03:48:16;29.07;;;17.53;;
21128;SDS011;10722;51.910;8.352;2023-08-31T03:51:01;37.57;;;17.57;;
21128;SDS011;10722;51.910;8.352;2023-08-31T03:53:46;30.33;;;17.67;;
21128;SDS011;10722;51.910;8.352;2023-08-31T03:56:31;32.93;;;18.10;;
21128;SDS011;10722;51.910;8.352;2023-08-31T03:59:16;32.65;;;17.52;;
21128;SDS011;10722;51.910;8.352;2023-08-31T04:02:01;32.67;;;17.90;;
21128;SDS011;10722;51.910;8.352;2023-08-31T04:04:46;30.10;;;17.67;;
21128;SDS011;10722;51.910;8.352;2023-08-31T04:07:31;34.97;;;18.50;;
21128;SDS011;10722;51.910;8.352;2023-08-31T04:10:17;35.50;;;18.90;;
21128;SDS011;10722;51.910;8.352;2023-08-31T04:13:02;32.40;;;18.77;;
21128;SDS011;10722;51.910;8.352;2023-08-31T04:15:48;33.27;;;19.37;;
21128;SDS011;10722;51.910;8.352;2023-08-31T04:18:33;36.33;;;19.30;;
21128;SDS011;10722;51.910;8.352;2023-08-31T04:21:18;31.03;;;20.10;;
21128;SDS011;10722;51.910;8.352;2023-08-31T04:24:04;34.00;;;19.08;;
21128;SDS011;10722;51.910;8.352;2023-08-31T04:26:49;33.27;;;19.57;;
21128;SDS011;10722;51.910;8.352;2023-08-31T04:29:35;36.07;;;20.37;;
21128;SDS011;10722;51.910;8.352;2023-08-31T04:32:19;34.53;;;19.97;;
21128;SDS011;10722;51.910;8.352;2023-08-31T04:35:04;39.43;;;21.43;;
21128;SDS011;10722;51.910;8.352;2023-08-31T04:37:50;37.13;;;19.43;;
21128;SDS011;10722;51.910;8.352;2023-08-31T04:40:35;32.77;;;20.23;;
21128;SDS011;10722;51.910;8.352;2023-08-31T04:43:20;35.57;;;19.87;;
21128;SDS011;10722;51.910;8.352;2023-08-31T04:46:06;35.87;;;19.33;;
21128;SDS011;10722;51.910;8.352;2023-08-31T04:48:51;34.40;;;19.60;;
21128;SDS011;10722;51.910;8.352;2023-08-31T04:51:36;35.27;;;20.40;;
21128;SDS011;10722;51.910;8.352;2023-08-31T04:54:23;36.63;;;20.07;;
21128;SDS011;10722;51.910;8.352;2023-08-31T04:57:08;35.43;;;20.43;;
21128;SDS011;10722;51.910;8.352;2023-08-31T04:59:52;35.70;;;20.33;;
21128;SDS011;10722;51.910;8.352;2023-08-31T05:02:37;32.83;;;20.37;;
21128;SDS011;10722;51.910;8.352;2023-08-31T05:05:22;35.30;;;21.10;;
21128;SDS011;10722;51.910;8.352;2023-08-31T05:08:08;40.97;;;23.37;;
21128;SDS011;10722;51.910;8.352;2023-08-31T05:10:53;37.53;;;22.57;;
21128;SDS011;10722;51.910;8.352;2023-08-31T05:13:38;41.27;;;23.87;;
21128;SDS011;10722;51.910;8.352;2023-08-31T05:16:24;40.37;;;25.47;;
21128;SDS011;10722;51.910;8.352;2023-08-31T05:19:09;41.63;;;24.93;;
21128;SDS011;10722;51.910;8.352;2023-08-31T05:21:54;44.53;;;26.73;;
21128;SDS011;10722;51.910;8.352;2023-08-31T05:24:39;45.17;;;27.50;;
21128;SDS011;10722;51.910;8.352;2023-08-31T05:27:24;45.03;;;26.63;;
21128;SDS011;10722;51.910;8.352;2023-08-31T05:30:09;48.60;;;26.80;;
21128;SDS011;10722;51.910;8.352;2023-08-31T05:32:55;43.60;;;27.17;;
21128;SDS011;10722;51.910;8.352;2023-08-31T05:35:40;46.93;;;27.47;;
21128;SDS011;10722;51.910;8.352;2023-08-31T05:38:25;44.73;;;27.00;;
21128;SDS011;10722;51.910;8.352;2023-08-31T05:41:10;42.80;;;25.10;;
21128;SDS011;10722;51.910;8.352;2023-08-31T05:43:54;47.97;;;26.53;;
21128;SDS011;10722;51.910;8.352;2023-08-31T05:46:39;45.20;;;25.27;;
21128;SDS011;10722;51.910;8.352;2023-08-31T05:49:24;41.20;;;25.07;;
21128;SDS011;10722;51.910;8.352;2023-08-31T05:52:09;43.47;;;25.27;;
21128;SDS011;10722;51.910;8.352;2023-08-31T05:54:54;41.43;;;24.07;;
21128;SDS011;10722;51.910;8.352;2023-08-31T05:57:39;43.13;;;23.37;;
21128;SDS011;10722;51.910;8.352;2023-08-31T06:00:25;38.35;;;21.98;;
21128;SDS011;10722;51.910;8.352;2023-08-31T06:03:10;38.50;;;21.73;;
21128;SDS011;10722;51.910;8.352;2023-08-31T06:05:56;41.80;;;21.90;;
21128;SDS011;10722;51.910;8.352;2023-08-31T06:08:42;39.50;;;21.23;;
21128;SDS011;10722;51.910;8.352;2023-08-31T06:11:27;36.67;;;20.20;;
21128;SDS011;10722;51.910;8.352;2023-08-31T06:14:13;37.47;;;20.07;;
21128;SDS011;10722;51.910;8.352;2023-08-31T06:16:58;35.50;;;20.23;;
21128;SDS011;10722;51.910;8.352;2023-08-31T06:19:43;36.00;;;21.03;;
21128;SDS011;10722;51.910;8.352;2023-08-31T06:22:28;37.60;;;20.17;;
21128;SDS011;10722;51.910;8.352;2023-08-31T06:25:13;35.10;;;20.20;;
21128;SDS011;10722;51.910;8.352;2023-08-31T06:27:58;32.50;;;18.17;;
21128;SDS011;10722;51.910;8.352;2023-08-31T06:30:43;31.83;;;19.20;;
21128;SDS011;10722;51.910;8.352;2023-08-31T06:33:28;31.17;;;18.13;;
21128;SDS011;10722;51.910;8.352;2023-08-31T06:36:13;28.77;;;17.70;;
21128;SDS011;10722;51.910;8.352;2023-08-31T06:38:58;30.67;;;18.23;;
21128;SDS011;10722;51.910;8.352;2023-08-31T06:41:42;31.08;;;18.98;;
21128;SDS011;10722;51.910;8.352;2023-08-31T06:44:27;30.45;;;18.55;;
21128;SDS011;10722;51.910;8.352;2023-08-31T06:47:12;29.30;;;18.50;;
21128;SDS011;10722;51.910;8.352;2023-08-31T06:49:57;30.63;;;18.27;;
21128;SDS011;10722;51.910;8.352;2023-08-31T06:52:42;30.07;;;17.77;;
21128;SDS011;10722;51.910;8.352;2023-08-31T06:55:27;30.23;;;18.58;;
21128;SDS011;10722;51.910;8.352;2023-08-31T06:58:12;29.43;;;18.07;;
21128;SDS011;10722;51.910;8.352;2023-08-31T07:00:57;29.47;;;18.50;;
21128;SDS011;10722;51.910;8.352;2023-08-31T07:03:42;28.70;;;17.40;;
21128;SDS011;10722;51.910;8.352;2023-08-31T07:06:27;29.85;;;18.35;;
21128;SDS011;10722;51.910;8.352;2023-08-31T07:09:12;27.80;;;16.67;;
21128;SDS011;10722;51.910;8.352;2023-08-31T07:11:57;26.73;;;16.83;;
21128;SDS011;10722;51.910;8.352;2023-08-31T07:14:42;25.98;;;16.00;;
21128;SDS011;10722;51.910;8.352;2023-08-31T07:17:27;26.92;;;15.45;;
21128;SDS011;10722;51.910;8.352;2023-08-31T07:20:12;30.80;;;16.42;;
21128;SDS011;10722;51.910;8.352;2023-08-31T07:22:57;26.08;;;14.77;;
21128;SDS011;10722;51.910;8.352;2023-08-31T07:25:42;27.70;;;15.13;;
21128;SDS011;10722;51.910;8.352;2023-08-31T07:28:27;24.48;;;15.07;;
21128;SDS011;10722;51.910;8.352;2023-08-31T07:31:12;23.27;;;13.43;;
21128;SDS011;10722;51.910;8.352;2023-08-31T07:33:57;26.92;;;15.77;;
21128;SDS011;10722;51.910;8.352;2023-08-31T07:36:43;24.00;;;15.63;;
21128;SDS011;10722;51.910;8.352;2023-08-31T07:39:28;23.38;;;14.75;;
21128;SDS011;10722;51.910;8.352;2023-08-31T07:42:13;24.20;;;14.82;;
21128;SDS011;10722;51.910;8.352;2023-08-31T07:44:58;26.25;;;15.45;;
21128;SDS011;10722;51.910;8.352;2023-08-31T07:47:43;30.92;;;17.63;;
21128;SDS011;10722;51.910;8.352;2023-08-31T07:50:28;27.48;;;17.17;;
21128;SDS011;10722;51.910;8.352;2023-08-31T07:53:13;27.50;;;18.15;;
21128;SDS011;10722;51.910;8.352;2023-08-31T07:55:58;28.88;;;17.85;;
21128;SDS011;10722;51.910;8.352;2023-08-31T07:58:43;30.83;;;18.73;;
21128;SDS011;10722;51.910;8.352;2023-08-31T08:01:29;31.02;;;19.40;;
21128;SDS011;10722;51.910;8.352;2023-08-31T08:04:14;27.33;;;18.83;;
21128;SDS011;10722;51.910;8.352;2023-08-31T08:06:59;30.17;;;19.40;;
21128;SDS011;10722;51.910;8.352;2023-08-31T08:09:44;29.02;;;20.35;;
21128;SDS011;10722;51.910;8.352;2023-08-31T08:12:42;29.65;;;19.08;;
21128;SDS011;10722;51.910;8.352;2023-08-31T08:15:28;28.40;;;18.73;;
21128;SDS011;10722;51.910;8.352;2023-08-31T08:18:15;26.05;;;17.45;;
21128;SDS011;10722;51.910;8.352;2023-08-31T08:21:00;27.75;;;17.58;;
21128;SDS011;10722;51.910;8.352;2023-08-31T08:23:47;29.67;;;17.67;;
21128;SDS011;10722;51.910;8.352;2023-08-31T08:26:32;26.58;;;16.73;;
21128;SDS011;10722;51.910;8.352;2023-08-31T08:29:17;28.33;;;17.70;;
21128;SDS011;10722;51.910;8.352;2023-08-31T08:32:02;25.45;;;14.60;;
21128;SDS011;10722;51.910;8.352;2023-08-31T08:34:47;25.88;;;17.67;;
21128;SDS011;10722;51.910;8.352;2023-08-31T08:37:32;27.50;;;17.45;;
21128;SDS011;10722;51.910;8.352;2023-08-31T08:40:18;26.55;;;18.00;;
21128;SDS011;10722;51.910;8.352;2023-08-31T08:43:06;26.30;;;16.60;;
21128;SDS011;10722;51.910;8.352;2023-08-31T08:45:52;26.30;;;16.33;;
21128;SDS011;10722;51.910;8.352;2023-08-31T08:48:39;23.13;;;15.80;;
21128;SDS011;10722;51.910;8.352;2023-08-31T08:51:26;25.58;;;16.02;;
21128;SDS011;10722;51.910;8.352;2023-08-31T08:54:12;24.88;;;13.93;;
21128;SDS011;10722;51.910;8.352;2023-08-31T08:56:57;25.17;;;14.82;;
21128;SDS011;10722;51.910;8.352;2023-08-31T08:59:43;23.88;;;14.98;;
21128;SDS011;10722;51.910;8.352;2023-08-31T09:02:28;28.98;;;15.80;;
21128;SDS011;10722;51.910;8.352;2023-08-31T09:05:13;25.52;;;14.57;;
21128;SDS011;10722;51.910;8.352;2023-08-31T09:08:03;24.25;;;14.13;;
21128;SDS011;10722;51.910;8.352;2023-08-31T09:10:53;20.92;;;12.10;;
21128;SDS011;10722;51.910;8.352;2023-08-31T09:13:40;19.67;;;11.02;;
21128;SDS011;10722;51.910;8.352;2023-08-31T09:16:29;18.55;;;10.40;;
21128;SDS011;10722;51.910;8.352;2023-08-31T09:22:10;16.98;;;8.57;;
21128;SDS011;10722;51.910;8.352;2023-08-31T09:24:55;16.75;;;6.95;;
21128;SDS011;10722;51.910;8.352;2023-08-31T09:27:41;18.55;;;7.63;;
21128;SDS011;10722;51.910;8.352;2023-08-31T09:30:28;16.55;;;6.88;;
21128;SDS011;10722;51.910;8.352;2023-08-31T09:33:20;13.88;;;6.10;;
21128;SDS011;10722;51.910;8.352;2023-08-31T09:36:06;17.20;;;6.22;;
21128;SDS011;10722;51.910;8.352;2023-08-31T09:38:56;14.63;;;5.95;;
21128;SDS011;10722;51.910;8.352;2023-08-31T09:41:54;13.57;;;5.80;;
21128;SDS011;10722;51.910;8.352;2023-08-31T09:44:40;14.38;;;6.53;;
21128;SDS011;10722;51.910;8.352;2023-08-31T09:47:28;15.20;;;6.13;;
21128;SDS011;10722;51.910;8.352;2023-08-31T09:50:13;16.23;;;6.63;;
21128;SDS011;10722;51.910;8.352;2023-08-31T09:53:02;15.65;;;7.10;;
21128;SDS011;10722;51.910;8.352;2023-08-31T09:55:48;15.38;;;6.70;;
21128;SDS011;10722;51.910;8.352;2023-08-31T09:58:35;17.60;;;7.40;;
21128;SDS011;10722;51.910;8.352;2023-08-31T10:01:20;15.93;;;6.88;;
21128;SDS011;10722;51.910;8.352;2023-08-31T10:04:14;16.02;;;6.53;;
21128;SDS011;10722;51.910;8.352;2023-08-31T10:07:00;15.82;;;6.70;;
21128;SDS011;10722;51.910;8.352;2023-08-31T10:09:45;15.48;;;6.82;;
21128;SDS011;10722;51.910;8.352;2023-08-31T10:12:31;16.75;;;6.43;;
21128;SDS011;10722;51.910;8.352;2023-08-31T10:15:16;13.90;;;6.05;;
21128;SDS011;10722;51.910;8.352;2023-08-31T10:18:02;14.23;;;6.53;;
21128;SDS011;10722;51.910;8.352;2023-08-31T10:20:49;16.02;;;5.60;;
21128;SDS011;10722;51.910;8.352;2023-08-31T10:23:35;14.70;;;5.03;;
21128;SDS011;10722;51.910;8.352;2023-08-31T10:26:24;14.32;;;4.03;;
21128;SDS011;10722;51.910;8.352;2023-08-31T10:29:25;12.73;;;3.95;;
21128;SDS011;10722;51.910;8.352;2023-08-31T10:32:16;14.40;;;3.58;;
21128;SDS011;10722;51.910;8.352;2023-08-31T10:35:07;13.93;;;3.35;;
21128;SDS011;10722;51.910;8.352;2023-08-31T10:38:09;11.88;;;3.10;;
21128;SDS011;10722;51.910;8.352;2023-08-31T10:41:18;10.00;;;2.67;;
21128;SDS011;10722;51.910;8.352;2023-08-31T10:44:20;9.70;;;2.72;;
21128;SDS011;10722;51.910;8.352;2023-08-31T10:47:07;8.57;;;2.45;;
21128;SDS011;10722;51.910;8.352;2023-08-31T10:49:52;10.95;;;2.58;;
21128;SDS011;10722;51.910;8.352;2023-08-31T10:52:42;9.23;;;2.30;;
21128;SDS011;10722;51.910;8.352;2023-08-31T10:55:31;6.90;;;2.40;;
21128;SDS011;10722;51.910;8.352;2023-08-31T10:58:16;11.63;;;2.58;;
21128;SDS011;10722;51.910;8.352;2023-08-31T11:01:01;8.73;;;2.45;;
21128;SDS011;10722;51.910;8.352;2023-08-31T11:03:58;8.88;;;2.30;;
21128;SDS011;10722;51.910;8.352;2023-08-31T11:06:44;10.75;;;2.47;;
21128;SDS011;10722;51.910;8.352;2023-08-31T11:09:29;9.20;;;2.50;;
21128;SDS011;10722;51.910;8.352;2023-08-31T11:12:15;7.90;;;2.30;;
21128;SDS011;10722;51.910;8.352;2023-08-31T11:15:00;6.90;;;2.30;;
21128;SDS011;10722;51.910;8.352;2023-08-31T11:17:45;9.63;;;2.25;;
21128;SDS011;10722;51.910;8.352;2023-08-31T11:20:30;9.23;;;2.00;;
21128;SDS011;10722;51.910;8.352;2023-08-31T11:23:15;7.57;;;1.80;;
21128;SDS011;10722;51.910;8.352;2023-08-31T11:26:01;19.42;;;9.63;;
21128;SDS011;10722;51.910;8.352;2023-08-31T11:28:47;8.68;;;2.00;;
21128;SDS011;10722;51.910;8.352;2023-08-31T11:31:31;9.32;;;2.13;;
21128;SDS011;10722;51.910;8.352;2023-08-31T11:34:17;6.65;;;1.80;;
21128;SDS011;10722;51.910;8.352;2023-08-31T11:37:03;7.80;;;1.77;;
21128;SDS011;10722;51.910;8.352;2023-08-31T11:39:53;8.75;;;1.90;;
21128;SDS011;10722;51.910;8.352;2023-08-31T11:42:38;5.40;;;1.80;;
21128;SDS011;10722;51.910;8.352;2023-08-31T11:45:24;10.30;;;1.90;;
21128;SDS011;10722;51.910;8.352;2023-08-31T11:48:10;5.40;;;1.38;;
21128;SDS011;10722;51.910;8.352;2023-08-31T11:50:55;8.68;;;1.73;;
21128;SDS011;10722;51.910;8.352;2023-08-31T11:53:40;9.38;;;1.75;;
21128;SDS011;10722;51.910;8.352;2023-08-31T11:56:26;7.30;;;1.88;;
21128;SDS011;10722;51.910;8.352;2023-08-31T11:59:12;7.75;;;1.60;;
21128;SDS011;10722;51.910;8.352;2023-08-31T12:01:59;11.32;;;2.00;;
21128;SDS011;10722;51.910;8.352;2023-08-31T12:04:44;7.20;;;1.80;;
21128;SDS011;10722;51.910;8.352;2023-08-31T12:07:31;9.57;;;2.10;;
21128;SDS011;10722;51.910;8.352;2023-08-31T12:10:16;7.35;;;1.80;;
21128;SDS011;10722;51.910;8.352;2023-08-31T12:13:10;10.73;;;2.17;;
21128;SDS011;10722;51.910;8.352;2023-08-31T12:15:58;7.88;;;1.80;;
21128;SDS011;10722;51.910;8.352;2023-08-31T12:18:43;10.07;;;2.05;;
21128;SDS011;10722;51.910;8.352;2023-08-31T12:21:28;7.20;;;2.10;;
21128;SDS011;10722;51.910;8.352;2023-08-31T12:24:13;7.55;;;1.90;;
21128;SDS011;10722;51.910;8.352;2023-08-31T12:26:58;8.73;;;2.17;;
21128;SDS011;10722;51.910;8.352;2023-08-31T12:29:43;6.97;;;2.10;;
21128;SDS011;10722;51.910;8.352;2023-08-31T12:32:28;7.97;;;2.20;;
21128;SDS011;10722;51.910;8.352;2023-08-31T12:35:13;7.00;;;2.17;;
21128;SDS011;10722;51.910;8.352;2023-08-31T12:37:58;6.05;;;1.90;;
21128;SDS011;10722;51.910;8.352;2023-08-31T12:40:43;6.18;;;1.90;;
21128;SDS011;10722;51.910;8.352;2023-08-31T12:43:28;9.13;;;2.33;;
21128;SDS011;10722;51.910;8.352;2023-08-31T12:46:13;12.13;;;2.40;;
21128;SDS011;10722;51.910;8.352;2023-08-31T12:48:59;6.65;;;1.88;;
21128;SDS011;10722;51.910;8.352;2023-08-31T12:51:45;6.35;;;2.00;;
21128;SDS011;10722;51.910;8.352;2023-08-31T12:54:30;7.50;;;1.80;;
21128;SDS011;10722;51.910;8.352;2023-08-31T12:57:15;8.55;;;2.10;;
21128;SDS011;10722;51.910;8.352;2023-08-31T13:00:00;7.55;;;2.20;;
21128;SDS011;10722;51.910;8.352;2023-08-31T13:02:45;6.05;;;1.88;;
21128;SDS011;10722;51.910;8.352;2023-08-31T13:05:30;8.05;;;1.80;;
21128;SDS011;10722;51.910;8.352;2023-08-31T13:08:15;8.50;;;1.98;;
21128;SDS011;10722;51.910;8.352;2023-08-31T13:11:00;7.78;;;2.10;;
21128;SDS011;10722;51.910;8.352;2023-08-31T13:13:45;6.93;;;2.10;;
21128;SDS011;10722;51.910;8.352;2023-08-31T13:16:30;8.10;;;1.90;;
21128;SDS011;10722;51.910;8.352;2023-08-31T13:19:15;7.20;;;2.08;;
21128;SDS011;10722;51.910;8.352;2023-08-31T13:22:00;8.00;;;2.33;;
21128;SDS011;10722;51.910;8.352;2023-08-31T13:24:45;10.48;;;2.35;;
21128;SDS011;10722;51.910;8.352;2023-08-31T13:27:31;7.72;;;2.20;;
21128;SDS011;10722;51.910;8.352;2023-08-31T13:30:16;8.35;;;2.50;;
21128;SDS011;10722;51.910;8.352;2023-08-31T13:33:00;7.88;;;2.45;;
21128;SDS011;10722;51.910;8.352;2023-08-31T13:35:46;8.23;;;2.30;;
21128;SDS011;10722;51.910;8.352;2023-08-31T13:38:31;12.32;;;3.08;;
21128;SDS011;10722;51.910;8.352;2023-08-31T13:41:16;10.27;;;3.10;;
21128;SDS011;10722;51.910;8.352;2023-08-31T13:44:10;9.48;;;2.80;;
21128;SDS011;10722;51.910;8.352;2023-08-31T13:46:56;10.57;;;2.92;;
21128;SDS011;10722;51.910;8.352;2023-08-31T13:49:41;10.57;;;2.47;;
21128;SDS011;10722;51.910;8.352;2023-08-31T13:52:26;8.40;;;2.30;;
21128;SDS011;10722;51.910;8.352;2023-08-31T13:55:10;7.50;;;2.30;;
21128;SDS011;10722;51.910;8.352;2023-08-31T13:57:55;5.25;;;2.25;;
21128;SDS011;10722;51.910;8.352;2023-08-31T14:00:40;5.78;;;2.03;;
21128;SDS011;10722;51.910;8.352;2023-08-31T14:03:25;6.97;;;2.20;;
21128;SDS011;10722;51.910;8.352;2023-08-31T14:06:11;7.95;;;2.05;;
21128;SDS011;10722;51.910;8.352;2023-08-31T14:08:59;7.10;;;2.13;;
21128;SDS011;10722;51.910;8.352;2023-08-31T14:11:44;50.33;;;33.38;;
21128;SDS011;10722;51.910;8.352;2023-08-31T14:14:30;13.88;;;5.30;;
21128;SDS011;10722;51.910;8.352;2023-08-31T14:17:14;7.32;;;2.00;;
21128;SDS011;10722;51.910;8.352;2023-08-31T14:20:00;7.50;;;2.50;;
21128;SDS011;10722;51.910;8.352;2023-08-31T14:22:44;6.30;;;2.55;;
21128;SDS011;10722;51.910;8.352;2023-08-31T14:25:33;7.07;;;2.70;;
21128;SDS011;10722;51.910;8.352;2023-08-31T14:28:21;6.63;;;2.67;;
21128;SDS011;10722;51.910;8.352;2023-08-31T14:31:06;6.78;;;2.30;;
21128;SDS011;10722;51.910;8.352;2023-08-31T14:33:51;6.00;;;2.20;;
21128;SDS011;10722;51.910;8.352;2023-08-31T14:36:36;6.30;;;2.30;;
21128;SDS011;10722;51.910;8.352;2023-08-31T14:39:21;13.65;;;2.88;;
21128;SDS011;10722;51.910;8.352;2023-08-31T14:42:07;7.07;;;2.60;;
21128;SDS011;10722;51.910;8.352;2023-08-31T14:44:52;7.40;;;2.95;;
21128;SDS011;10722;51.910;8.352;2023-08-31T14:47:37;8.18;;;2.53;;
21128;SDS011;10722;51.910;8.352;2023-08-31T14:50:22;7.13;;;2.60;;
21128;SDS011;10722;51.910;8.352;2023-08-31T14:53:07;9.20;;;2.75;;
21128;SDS011;10722;51.910;8.352;2023-08-31T14:55:52;7.30;;;2.70;;
21128;SDS011;10722;51.910;8.352;2023-08-31T14:58:38;11.55;;;3.10;;
21128;SDS011;10722;51.910;8.352;2023-08-31T15:01:23;12.60;;;3.10;;
21128;SDS011;10722;51.910;8.352;2023-08-31T15:04:08;12.40;;;3.30;;
21128;SDS011;10722;51.910;8.352;2023-08-31T15:06:53;11.20;;;2.83;;
21128;SDS011;10722;51.910;8.352;2023-08-31T15:09:38;6.13;;;2.40;;
21128;SDS011;10722;51.910;8.352;2023-08-31T15:12:23;6.43;;;2.50;;
21128;SDS011;10722;51.910;8.352;2023-08-31T15:15:08;7.60;;;2.55;;
21128;SDS011;10722;51.910;8.352;2023-08-31T15:17:54;9.77;;;2.75;;
21128;SDS011;10722;51.910;8.352;2023-08-31T15:20:40;6.15;;;2.50;;
21128;SDS011;10722;51.910;8.352;2023-08-31T15:23:24;9.63;;;2.65;;
21128;SDS011;10722;51.910;8.352;2023-08-31T15:26:10;7.32;;;2.63;;
21128;SDS011;10722;51.910;8.352;2023-08-31T15:28:55;7.05;;;3.08;;
21128;SDS011;10722;51.910;8.352;2023-08-31T15:31:40;9.15;;;3.13;;
21128;SDS011;10722;51.910;8.352;2023-08-31T15:34:25;9.15;;;3.70;;
21128;SDS011;10722;51.910;8.352;2023-08-31T15:37:10;9.57;;;4.15;;
21128;SDS011;10722;51.910;8.352;2023-08-31T15:39:55;11.45;;;4.32;;
21128;SDS011;10722;51.910;8.352;2023-08-31T15:42:40;12.75;;;5.15;;
21128;SDS011;10722;51.910;8.352;2023-08-31T15:45:25;13.48;;;5.30;;
21128;SDS011;10722;51.910;8.352;2023-08-31T15:48:11;11.55;;;5.03;;
21128;SDS011;10722;51.910;8.352;2023-08-31T15:50:57;13.48;;;5.07;;
21128;SDS011;10722;51.910;8.352;2023-08-31T15:53:44;12.18;;;5.15;;
21128;SDS011;10722;51.910;8.352;2023-08-31T15:56:29;12.48;;;5.78;;
21128;SDS011;10722;51.910;8.352;2023-08-31T15:59:14;15.35;;;6.80;;
21128;SDS011;10722;51.910;8.352;2023-08-31T16:01:59;11.70;;;5.03;;
21128;SDS011;10722;51.910;8.352;2023-08-31T16:04:44;12.57;;;4.95;;
21128;SDS011;10722;51.910;8.352;2023-08-31T16:07:29;10.98;;;4.88;;
21128;SDS011;10722;51.910;8.352;2023-08-31T16:10:15;11.75;;;5.00;;
21128;SDS011;10722;51.910;8.352;2023-08-31T16:13:01;13.27;;;4.50;;
21128;SDS011;10722;51.910;8.352;2023-08-31T16:15:46;11.25;;;4.60;;
21128;SDS011;10722;51.910;8.352;2023-08-31T16:18:33;11.73;;;4.95;;
21128;SDS011;10722;51.910;8.352;2023-08-31T16:21:18;10.93;;;4.55;;
21128;SDS011;10722;51.910;8.352;2023-08-31T16:24:03;13.70;;;4.80;;
21128;SDS011;10722;51.910;8.352;2023-08-31T16:26:49;11.60;;;5.22;;
21128;SDS011;10722;51.910;8.352;2023-08-31T16:29:34;11.77;;;4.78;;
21128;SDS011;10722;51.910;8.352;2023-08-31T16:32:20;11.82;;;5.78;;